createdAt,value
2019-02-08T00:02:00.909Z,93.59
2019-02-08T00:05:06.508Z,93.47
2019-02-08T00:08:10.819Z,93.80
2019-02-08T00:11:15.627Z,93.70
2019-02-08T00:14:19.922Z,93.55
2019-02-08T00:17:24.204Z,93.39
2019-02-08T00:20:28.879Z,92.88
2019-02-08T00:23:33.255Z,92.56
2019-02-08T00:26:37.955Z,92.66
2019-02-08T00:29:42.520Z,92.28
2019-02-08T00:32:47.010Z,92.38
2019-02-08T00:35:51.321Z,91.82
2019-02-08T00:38:55.796Z,91.71
2019-02-08T00:42:00.076Z,91.34
2019-02-08T00:45:05.317Z,91.37
2019-02-08T00:48:10.016Z,91.30
2019-02-08T00:51:14.305Z,91.32
2019-02-08T00:54:18.789Z,91.31
2019-02-08T00:57:23.463Z,91.64
2019-02-08T01:00:27.854Z,91.56
2019-02-08T01:03:32.270Z,91.65
2019-02-08T01:06:36.901Z,91.44
2019-02-08T01:09:41.167Z,91.20
2019-02-08T01:12:45.476Z,91.27
2019-02-08T01:15:50.118Z,90.97
2019-02-08T01:18:54.399Z,90.28
2019-02-08T01:21:58.744Z,90.74
2019-02-08T01:25:03.130Z,90.51
2019-02-08T01:28:08.380Z,90.64
2019-02-08T01:31:13.337Z,90.84
2019-02-08T01:34:18.389Z,90.73
2019-02-08T01:37:22.754Z,91.01
2019-02-08T01:40:32.092Z,91.14
2019-02-08T01:43:36.378Z,91.52
2019-02-08T01:46:40.668Z,90.87
2019-02-08T01:49:44.999Z,90.73
2019-02-08T01:52:49.696Z,91.22
2019-02-08T01:55:53.983Z,91.38
2019-02-08T01:58:58.260Z,90.98
2019-02-08T02:02:02.640Z,90.95
2019-02-08T02:05:09.276Z,90.90
2019-02-08T02:08:13.667Z,90.74
2019-02-08T02:11:18.194Z,90.61
2019-02-08T02:14:22.587Z,90.17
2019-02-08T02:17:26.873Z,90.08
2019-02-08T02:20:37.024Z,89.96
2019-02-08T02:23:41.293Z,90.53
2019-02-08T02:26:45.563Z,90.11
2019-02-08T02:29:50.055Z,90.35
2019-02-08T02:32:54.349Z,89.99
2019-02-08T02:35:58.623Z,90.29
2019-02-08T02:39:02.911Z,89.94
2019-02-08T02:42:07.283Z,89.79
2019-02-08T02:45:23.415Z,89.42
2019-02-08T02:48:27.757Z,89.59
2019-02-08T02:51:32.068Z,89.33
2019-02-08T02:54:36.342Z,89.68
2019-02-08T02:57:40.902Z,89.67
2019-02-08T03:00:47.605Z,89.89
2019-02-08T03:03:51.913Z,89.65
2019-02-08T03:06:56.203Z,89.59
2019-02-08T03:10:00.493Z,90.04
2019-02-08T03:13:06.901Z,89.96
2019-02-08T03:16:11.185Z,90.31
2019-02-08T03:19:15.469Z,90.11
2019-02-08T03:22:19.750Z,89.74
2019-02-08T03:25:25.669Z,89.68
2019-02-08T03:28:29.959Z,89.62
2019-02-08T03:31:34.491Z,89.96
2019-02-08T03:34:38.730Z,89.98
2019-02-08T03:37:43.019Z,89.90
2019-02-08T03:40:47.313Z,89.91
2019-02-08T03:43:51.615Z,90.31
2019-02-08T03:46:56.062Z,90.25
2019-02-08T03:50:01.426Z,90.03
2019-02-08T03:53:06.473Z,89.88
2019-02-08T03:56:10.735Z,89.40
2019-02-08T03:59:15.331Z,89.54
2019-02-08T04:02:19.612Z,89.83
2019-02-08T04:05:24.098Z,90.01
2019-02-08T04:08:30.630Z,89.79
2019-02-08T04:11:34.914Z,89.60
2019-02-08T04:14:39.246Z,89.85
2019-02-08T04:17:43.501Z,89.76
2019-02-08T04:20:47.873Z,89.91
2019-02-08T04:23:52.362Z,90.42
2019-02-08T04:26:56.636Z,90.55
2019-02-08T04:30:00.936Z,90.49
2019-02-08T04:33:05.607Z,90.85
2019-02-08T04:36:10.022Z,91.20
2019-02-08T04:39:16.933Z,90.77
2019-02-08T04:42:24.231Z,91.25
2019-02-08T04:45:28.575Z,91.77
2019-02-08T04:48:32.882Z,91.98
2019-02-08T04:51:37.176Z,92.40
2019-02-08T04:54:41.460Z,92.38
2019-02-08T04:57:45.949Z,92.33
2019-02-08T05:00:50.235Z,91.81
2019-02-08T05:03:54.552Z,91.42
2019-02-08T05:06:58.799Z,91.16
2019-02-08T05:10:03.094Z,91.19
2019-02-08T05:13:07.378Z,90.58
2019-02-08T05:16:14.534Z,90.61
2019-02-08T05:19:18.847Z,90.52
2019-02-08T05:22:23.136Z,90.11
2019-02-08T05:25:27.755Z,89.73
2019-02-08T05:28:32.040Z,89.57
2019-02-08T05:31:36.369Z,89.89
2019-02-08T05:34:40.656Z,90.06
2019-02-08T05:37:44.929Z,89.70
2019-02-08T05:40:49.577Z,89.85
2019-02-08T05:43:53.879Z,90.04
2019-02-08T05:46:58.158Z,90.57
2019-02-08T05:50:02.596Z,91.04
2019-02-08T05:53:07.197Z,90.22
2019-02-08T05:56:11.503Z,90.19
2019-02-08T05:59:15.801Z,90.22
2019-02-08T06:02:20.069Z,90.19
2019-02-08T06:05:24.766Z,90.94
2019-02-08T06:08:29.034Z,91.15
2019-02-08T06:11:33.334Z,91.62
2019-02-08T06:14:37.665Z,91.82
2019-02-08T06:17:42.020Z,91.54
2019-02-08T06:20:46.490Z,91.51
2019-02-08T06:23:50.753Z,91.34
2019-02-08T06:26:55.025Z,90.98
2019-02-08T06:29:59.322Z,90.92
2019-02-08T06:33:03.724Z,90.83
2019-02-08T06:36:08.014Z,90.96
2019-02-08T06:39:13.950Z,91.57
2019-02-08T06:42:18.367Z,91.73
2019-02-08T06:45:24.144Z,91.19
2019-02-08T06:48:28.512Z,91.47
2019-02-08T06:51:32.909Z,91.52
2019-02-08T06:54:37.307Z,91.29
2019-02-08T06:58:18.866Z,91.38
2019-02-08T07:01:40.001Z,91.44
2019-02-08T07:04:51.093Z,90.96
2019-02-08T07:08:26.469Z,90.86
2019-02-08T07:11:52.768Z,91.01
2019-02-08T07:15:28.241Z,91.12
2019-02-08T07:18:51.477Z,90.84
2019-02-08T07:22:20.652Z,91.06
2019-02-08T07:25:46.949Z,91.37
2019-02-08T07:29:13.260Z,91.32
2019-02-08T07:32:30.861Z,91.27
2019-02-08T07:35:57.718Z,90.98
2019-02-08T07:39:27.220Z,91.18
2019-02-08T07:42:56.838Z,90.48
2019-02-08T07:46:12.418Z,90.45
2019-02-08T07:49:45.363Z,89.96
2019-02-08T07:53:05.642Z,90.63
2019-02-08T07:56:21.120Z,90.59
2019-02-08T07:59:33.587Z,90.62
2019-02-08T08:02:51.024Z,90.30
2019-02-08T08:06:13.610Z,90.57
2019-02-08T08:09:39.971Z,90.10
2019-02-08T08:13:07.911Z,90.28
2019-02-08T08:16:35.893Z,90.10
2019-02-08T08:20:06.601Z,89.55
2019-02-08T08:23:30.007Z,89.73
2019-02-08T08:26:55.823Z,89.16
2019-02-08T08:30:16.943Z,89.46
2019-02-08T08:33:38.398Z,89.19
2019-02-08T08:37:24.804Z,89.36
2019-02-08T08:41:17.950Z,89.00
2019-02-08T08:44:53.618Z,89.10
2019-02-08T08:48:45.166Z,89.27
2019-02-08T08:52:29.539Z,89.14
2019-02-08T08:55:58.586Z,89.08
2019-02-08T08:59:29.222Z,88.47
2019-02-08T09:03:35.925Z,88.34
2019-02-08T09:07:24.068Z,88.27
2019-02-08T09:11:20.395Z,88.65
2019-02-08T09:15:08.615Z,88.89
2019-02-08T09:19:00.478Z,88.60
2019-02-08T09:22:47.421Z,88.93
2019-02-08T09:26:18.507Z,88.77
2019-02-08T09:30:18.514Z,88.79
2019-02-08T09:34:31.171Z,89.39
2019-02-08T09:38:18.201Z,89.79
2019-02-08T09:42:12.990Z,90.29
2019-02-08T09:45:54.853Z,90.73
2019-02-08T09:49:44.634Z,90.55
2019-02-08T09:53:39.302Z,90.92
2019-02-08T09:57:36.583Z,90.70
2019-02-08T10:01:23.151Z,90.21
2019-02-08T10:05:05.824Z,90.45
2019-02-08T10:08:58.216Z,90.37
2019-02-08T10:12:55.444Z,89.95
2019-02-08T10:17:03.893Z,89.98
2019-02-08T10:20:39.274Z,88.78
2019-02-08T10:24:21.368Z,89.28
2019-02-08T10:28:15.836Z,89.09
2019-02-08T10:31:57.744Z,89.21
2019-02-08T10:35:37.763Z,88.75
2019-02-08T10:39:37.138Z,88.24
2019-02-08T10:43:31.528Z,88.30
2019-02-08T10:47:01.817Z,88.67
2019-02-08T10:50:32.842Z,88.90
2019-02-08T10:54:24.500Z,89.35
2019-02-08T10:58:20.529Z,89.13
2019-02-08T11:02:00.615Z,89.70
2019-02-08T11:06:00.059Z,89.51
2019-02-08T11:09:42.893Z,89.44
2019-02-08T11:13:26.779Z,89.94
2019-02-08T11:17:27.113Z,90.06
2019-02-08T11:20:31.583Z,88.97
2019-02-08T11:23:36.960Z,89.38
2019-02-08T11:26:41.273Z,89.53
2019-02-08T11:29:45.623Z,88.34
2019-02-08T11:32:49.955Z,88.29
2019-02-08T11:35:54.415Z,88.52
2019-02-08T11:38:58.696Z,88.45
2019-02-08T11:42:02.999Z,88.92
2019-02-08T11:45:08.242Z,89.31
2019-02-08T11:48:12.542Z,89.51
2019-02-08T11:51:16.942Z,90.20
2019-02-08T11:54:21.245Z,90.17
2019-02-08T11:57:25.593Z,90.50
2019-02-08T12:00:37.187Z,90.50
2019-02-08T12:03:41.492Z,91.04
2019-02-08T12:06:45.802Z,91.19
2019-02-08T12:09:50.198Z,91.49
2019-02-08T12:12:54.629Z,91.69
2019-02-08T12:15:59.024Z,91.77
2019-02-08T12:19:03.335Z,92.04
2019-02-08T12:22:07.650Z,92.55
2019-02-08T12:25:12.516Z,92.96
2019-02-08T12:28:16.950Z,93.08
2019-02-08T12:31:21.567Z,92.86
2019-02-08T12:34:25.892Z,93.15
2019-02-08T12:37:30.315Z,92.87
2019-02-08T12:40:34.731Z,93.34
2019-02-08T12:43:39.153Z,93.03
2019-02-08T12:46:43.792Z,93.39
2019-02-08T12:49:51.233Z,93.44
2019-02-08T12:52:55.503Z,93.92
2019-02-08T12:55:59.936Z,94.56
2019-02-08T12:59:04.554Z,94.50
2019-02-08T13:02:08.946Z,93.94
2019-02-08T13:05:15.877Z,94.26
2019-02-08T13:08:20.292Z,94.40
2019-02-08T13:11:28.992Z,94.13
2019-02-08T13:14:33.278Z,94.11
2019-02-08T13:17:37.581Z,94.43
2019-02-08T13:20:42.102Z,94.82
2019-02-08T13:23:48.569Z,94.80
2019-02-08T13:26:53.204Z,94.87
2019-02-08T13:29:57.936Z,94.66
2019-02-08T13:33:02.647Z,94.85
2019-02-08T13:36:13.104Z,94.92
2019-02-08T13:39:20.678Z,94.91
2019-02-08T13:42:27.336Z,94.62
2019-02-08T13:45:31.391Z,94.93
2019-02-08T13:48:37.139Z,95.50
2019-02-08T13:51:41.695Z,95.22
2019-02-08T13:54:45.986Z,95.53
2019-02-08T13:57:53.476Z,95.65
2019-02-08T14:00:57.765Z,95.69
2019-02-08T14:04:02.180Z,95.01
2019-02-08T14:07:09.496Z,94.91
2019-02-08T14:10:15.411Z,95.00
2019-02-08T14:13:19.684Z,94.97
2019-02-08T14:16:24.025Z,94.91
2019-02-08T14:19:28.321Z,94.71
2019-02-08T14:22:35.408Z,95.03
2019-02-08T14:25:39.718Z,94.88
2019-02-08T14:28:44.007Z,94.76
2019-02-08T14:31:48.317Z,94.57
2019-02-08T14:34:52.666Z,94.72
2019-02-08T14:37:57.734Z,94.53
2019-02-08T14:41:02.114Z,94.42
2019-02-08T14:44:06.621Z,93.90
2019-02-08T14:47:11.164Z,93.87
2019-02-08T14:50:18.521Z,94.23
2019-02-08T14:53:22.852Z,94.24
2019-02-08T14:56:27.160Z,94.02
2019-02-08T14:59:31.523Z,94.01
2019-02-08T15:02:36.032Z,93.85
2019-02-08T15:05:40.544Z,94.08
2019-02-08T15:08:44.955Z,94.16
2019-02-08T15:11:49.272Z,94.21
2019-02-08T15:14:53.569Z,93.91
2019-02-08T15:17:58.004Z,94.06
2019-02-08T15:21:02.478Z,94.10
2019-02-08T15:24:10.117Z,94.04
2019-02-08T15:27:14.436Z,93.98
2019-02-08T15:30:21.653Z,94.14
2019-02-08T15:33:25.959Z,94.10
2019-02-08T15:36:30.242Z,94.33
2019-02-08T15:39:39.454Z,94.34
2019-02-08T15:42:47.360Z,94.24
2019-02-08T15:45:54.848Z,94.21
2019-02-08T15:48:59.227Z,94.21
2019-02-08T15:52:03.513Z,93.90
2019-02-08T15:55:10.770Z,94.07
2019-02-08T15:58:15.052Z,94.25
2019-02-08T16:01:19.616Z,94.62
2019-02-08T16:04:23.995Z,94.21
2019-02-08T16:07:28.385Z,94.18
2019-02-08T16:10:32.804Z,94.07
2019-02-08T16:13:37.226Z,94.35
2019-02-08T16:16:41.617Z,94.22
2019-02-08T16:19:46.009Z,94.38
2019-02-08T16:22:50.877Z,94.20
2019-02-08T16:25:55.290Z,94.11
2019-02-08T16:28:59.584Z,94.37
2019-02-08T16:32:03.913Z,94.78
2019-02-08T16:35:09.484Z,94.72
2019-02-08T16:38:13.806Z,94.59
2019-02-08T16:41:18.138Z,94.55
2019-02-08T16:44:22.434Z,94.64
2019-02-08T16:47:26.718Z,94.26
2019-02-08T16:50:33.290Z,94.52
2019-02-08T16:53:37.588Z,94.08
2019-02-08T16:56:41.901Z,94.09
2019-02-08T16:59:46.317Z,94.13
2019-02-08T17:02:50.804Z,94.51
2019-02-08T17:05:58.135Z,94.55
2019-02-08T17:09:02.457Z,94.42
2019-02-08T17:12:06.943Z,94.18
2019-02-08T17:15:14.070Z,94.43
2019-02-08T17:18:18.338Z,94.08
2019-02-08T17:21:22.647Z,94.15
2019-02-08T17:24:26.962Z,94.10
2019-02-08T17:27:31.254Z,94.11
2019-02-08T17:30:35.857Z,94.20
2019-02-08T17:33:40.259Z,94.11
2019-02-08T17:36:44.625Z,93.91
2019-02-08T17:39:49.022Z,93.80
2019-02-08T17:42:53.310Z,93.58
2019-02-08T17:45:57.604Z,93.56
2019-02-08T17:49:01.909Z,94.15
2019-02-08T17:52:06.258Z,93.90
2019-02-08T17:55:12.294Z,93.41
2019-02-08T17:58:16.724Z,93.81
2019-02-08T18:01:21.146Z,93.88
2019-02-08T18:04:25.901Z,93.75
2019-02-08T18:07:30.402Z,94.24
2019-02-08T18:10:36.910Z,93.96
2019-02-08T18:13:41.275Z,93.31
2019-02-08T18:16:45.571Z,93.66
2019-02-08T18:19:49.898Z,93.74
2019-02-08T18:22:54.500Z,93.70
2019-02-08T18:25:58.803Z,93.55
2019-02-08T18:29:03.200Z,93.63
2019-02-08T18:32:07.504Z,93.43
2019-02-08T18:35:12.062Z,93.25
2019-02-08T18:38:16.568Z,93.29
2019-02-08T18:41:20.973Z,92.84
2019-02-08T18:44:25.465Z,92.99
2019-02-08T18:47:29.732Z,93.20
2019-02-08T18:50:45.870Z,92.92
2019-02-08T18:53:52.604Z,92.92
2019-02-08T18:56:56.902Z,92.75
2019-02-08T19:00:01.208Z,92.72
2019-02-08T19:03:06.101Z,92.82
2019-02-08T19:06:10.505Z,92.77
2019-02-08T19:09:14.786Z,92.65
2019-02-08T19:12:19.306Z,92.35
2019-02-08T19:15:24.373Z,91.99
2019-02-08T19:18:28.710Z,92.46
2019-02-08T19:21:36.060Z,92.87
2019-02-08T19:24:40.577Z,92.46
2019-02-08T19:27:44.945Z,92.60
2019-02-08T19:30:49.436Z,92.83
2019-02-08T19:33:53.815Z,92.63
2019-02-08T19:37:00.228Z,92.64
2019-02-08T19:40:06.413Z,92.85
2019-02-08T19:43:11.042Z,92.79
2019-02-08T19:46:15.641Z,92.68
2019-02-08T19:49:20.132Z,92.47
2019-02-08T19:52:24.793Z,92.59
2019-02-08T19:55:29.672Z,92.53
2019-02-08T19:58:34.912Z,92.85
2019-02-08T20:01:39.738Z,92.62
2019-02-08T20:04:44.370Z,92.95
2019-02-08T20:07:48.987Z,93.43
2019-02-08T20:10:53.481Z,93.26
2019-02-08T20:13:58.031Z,93.31
2019-02-08T20:17:02.505Z,93.54
2019-02-08T20:20:08.675Z,93.36
2019-02-08T20:23:13.427Z,92.94
2019-02-08T20:26:18.064Z,92.79
2019-02-08T20:29:22.899Z,92.21
2019-02-08T20:32:27.846Z,91.71
2019-02-08T20:35:32.472Z,91.77
2019-02-08T20:38:39.874Z,91.58
2019-02-08T20:41:44.536Z,90.97
2019-02-08T20:44:49.072Z,90.72
2019-02-08T20:47:54.537Z,90.82
2019-02-08T20:50:59.198Z,90.62
2019-02-08T20:54:04.173Z,90.51
2019-02-08T20:57:09.147Z,89.98
2019-02-08T21:00:28.072Z,90.32
2019-02-08T21:03:32.847Z,89.74
2019-02-08T21:06:37.423Z,90.61
2019-02-08T21:09:41.991Z,90.50
2019-02-08T21:12:49.627Z,90.41
2019-02-08T21:15:53.993Z,90.46
2019-02-08T21:18:58.797Z,90.65
2019-02-08T21:22:03.355Z,91.46
2019-02-08T21:25:09.457Z,91.72
2019-02-08T21:28:13.822Z,91.63
2019-02-08T21:31:18.384Z,91.86
2019-02-08T21:34:22.722Z,92.29
2019-02-08T21:37:27.073Z,92.72
2019-02-08T21:40:31.399Z,92.15
2019-02-08T21:43:35.736Z,92.46
2019-02-08T21:46:40.113Z,92.32
2019-02-08T21:49:44.540Z,92.35
2019-02-08T21:52:48.823Z,92.43
2019-02-08T21:55:53.137Z,91.76
2019-02-08T21:58:57.656Z,92.18
2019-02-08T22:02:01.948Z,91.63
2019-02-08T22:05:07.269Z,92.01
2019-02-08T22:08:14.291Z,92.23
2019-02-08T22:11:18.605Z,91.48
2019-02-08T22:14:22.882Z,91.62
2019-02-08T22:17:27.390Z,91.50
2019-02-08T22:20:32.011Z,91.90
2019-02-08T22:23:36.312Z,91.54
2019-02-08T22:26:40.600Z,92.08
2019-02-08T22:29:44.935Z,92.16
2019-02-08T22:32:49.972Z,91.97
2019-02-08T22:35:57.127Z,92.30
2019-02-08T22:39:01.413Z,92.16
2019-02-08T22:42:05.752Z,92.37
2019-02-08T22:45:16.839Z,92.63
2019-02-08T22:48:21.154Z,92.60
2019-02-08T22:51:25.470Z,92.98
2019-02-08T22:54:29.989Z,93.27
2019-02-08T22:57:34.263Z,92.67
2019-02-08T23:01:26.804Z,93.20
2019-02-08T23:04:31.080Z,93.09
2019-02-08T23:07:35.355Z,93.33
2019-02-08T23:10:40.050Z,93.20
2019-02-08T23:13:44.331Z,93.29
2019-02-08T23:16:48.605Z,93.07
2019-02-08T23:19:53.003Z,93.30
2019-02-08T23:22:57.264Z,93.31
2019-02-08T23:26:02.426Z,92.91
2019-02-08T23:29:06.847Z,93.24
2019-02-08T23:32:11.164Z,93.13
2019-02-08T23:35:15.620Z,93.24
2019-02-08T23:38:19.896Z,93.60
2019-02-08T23:41:24.261Z,93.83
2019-02-08T23:44:28.541Z,93.09
2019-02-08T23:47:32.816Z,93.54
2019-02-08T23:50:37.077Z,93.15
2019-02-08T23:53:41.375Z,93.40
2019-02-08T23:56:46.132Z,93.36
2019-02-08T23:59:50.553Z,93.36
